FW7628 Weather Reports


Display with metric or nautical units.
time (UTC)temp
F
wind
direction
speed
MPH
gust
MPH
rain 1hr
in
rain 24hr
in
rain mn
in
humidity
%
barometer
mb
20210805150940 63 115 0.0 0.0 0.00 0.00 0.00 95 1020.3
20210805150437 64 99 1.0 1.0 0.00 0.00 0.00 95 1020.3
20210805145936 64 292 3.0 5.0 0.00 0.00 0.00 96 1020.2
20210805145436 64 107 0.0 1.0 0.00 0.00 0.00 96 1020.1
20210805144935 64 116 0.0 0.0 0.00 0.00 0.00 96 1020.1
20210805144433 63 116 0.0 1.0 0.00 0.00 0.00 96 1020.0
20210805143929 63 52 3.0 3.0 0.00 0.00 0.00 96 1020.0
20210805143429 63 219 1.0 1.0 0.00 0.00 0.00 96 1019.9
20210805142928 63 224 0.0 0.0 0.00 0.00 0.00 96 1020.1
20210805142426 63 120 1.0 1.0 0.00 0.00 0.00 97 1020.1
20210805141925 63 185 1.0 1.0 0.00 0.00 0.00 97 1019.9
20210805141423 62 126 1.0 1.0 0.00 0.00 0.00 97 1019.8
20210805140922 62 115 0.0 1.0 0.00 0.00 0.00 97 1019.9
20210805140421 62 74 1.0 2.0 0.00 0.00 0.00 97 1019.8
20210805135920 62 52 4.0 8.0 0.00 0.00 0.00 97 1020.1
20210805135416 62 114 2.0 2.0 0.00 0.00 0.00 97 1020.2
20210805134915 62 96 0.0 0.0 0.00 0.00 0.00 97 1020.0
20210805134415 62 85 5.0 7.0 0.00 0.00 0.00 97 1020.0
20210805133913 62 95 2.0 3.0 0.00 0.00 0.00 97 1020.0
20210805133412 62 163 1.0 2.0 0.00 0.00 0.00 97 1020.1
20210805132911 61 33 2.0 2.0 0.00 0.00 0.00 97 1020.1
20210805132410 62 70 0.0 1.0 0.00 0.00 0.00 97 1019.9
20210805131910 62 89 1.0 1.0 0.00 0.00 0.00 97 1019.9
20210805131408 62 81 3.0 6.0 0.00 0.00 0.00 97 1020.1
20210805130907 61 65 1.0 1.0 0.00 0.00 0.00 97 1020.0
20210805130406 61 94 1.0 1.0 0.00 0.00 0.00 97 1020.0
20210805125905 61 98 1.0 1.0 0.00 0.00 0.00 97 1019.9
20210805125404 61 100 1.0 2.0 0.00 0.00 0.00 97 1019.9
20210805124902 61 131 0.0 1.0 0.00 0.00 0.00 97 1020.0
20210805124401 61 66 1.0 1.0 0.00 0.00 0.00 97 1019.9
20210805123857 61 103 0.0 0.0 0.00 0.00 0.00 97 1020.1
20210805123357 61 73 1.0 2.0 0.00 0.00 0.00 97 1020.1
20210805122855 61 102 1.0 2.0 0.00 0.00 0.00 97 1020.0
20210805122353 61 98 3.0 3.0 0.00 0.00 0.00 97 1019.9
20210805121853 61 106 1.0 2.0 0.00 0.00 0.00 97 1019.8
20210805121351 61 74 0.0 1.0 0.00 0.00 0.00 97 1019.9
20210805120851 61 76 2.0 2.0 0.00 0.00 0.00 97 1019.8
20210805120350 61 85 2.0 2.0 0.00 0.00 0.00 97 1020.0
20210805115849 61 14 1.0 1.0 0.00 0.00 0.00 97 1020.1
20210805115348 61 89 1.0 2.0 0.00 0.00 0.00 97 1020.0
20210805114845 61 120 0.0 0.0 0.00 0.00 0.00 97 1020.0
20210805114343 61 121 2.0 5.0 0.00 0.00 0.00 97 1020.0
20210805113841 61 82 1.0 2.0 0.00 0.00 0.00 97 1020.0
20210805113340 61 82 2.0 2.0 0.00 0.00 0.00 97 1020.0
20210805112837 61 93 3.0 3.0 0.00 0.00 0.00 96 1019.8
20210805112336 61 34 1.0 2.0 0.00 0.00 0.00 96 1019.7
20210805111834 61 75 1.0 1.0 0.00 0.00 0.00 96 1020.1
20210805111334 61 80 0.0 0.0 0.00 0.00 0.00 96 1020.1
20210805110833 61 73 0.0 1.0 0.00 0.00 0.00 96 1020.0
20210805110331 61 71 0.0 0.0 0.00 0.00 0.00 96 1020.0
20210805105828 61 80 1.0 1.0 0.00 0.00 0.00 96 1019.9
20210805105326 61 67 1.0 2.0 0.00 0.00 0.00 96 1020.1
20210805104826 61 78 0.0 0.0 0.00 0.00 0.00 96 1019.8
20210805104325 61 74 1.0 1.0 0.00 0.00 0.00 96 1020.0
20210805103824 61 97 1.0 1.0 0.00 0.00 0.00 96 1019.9
20210805103322 61 77 2.0 2.0 0.00 0.00 0.00 96 1020.0
20210805102821 61 73 0.0 1.0 0.00 0.00 0.00 96 1019.9
20210805102319 61 80 0.0 0.0 0.00 0.00 0.00 96 1020.0
20210805101818 61 19 3.0 5.0 0.00 0.00 0.00 96 1019.8
20210805101317 61 74 1.0 2.0 0.00 0.00 0.00 96 1019.5
20210805100816 61 74 2.0 2.0 0.00 0.00 0.00 96 1019.8
20210805100314 61 65 0.0 1.0 0.00 0.00 0.00 96 1019.7
20210805095812 61 103 0.0 0.0 0.00 0.00 0.00 95 1019.8
20210805095310 61 103 0.0 0.0 0.00 0.00 0.00 95 1019.8
20210805094808 61 91 0.0 0.0 0.00 0.00 0.00 95 1019.8
20210805094307 61 57 1.0 3.0 0.00 0.00 0.00 95 1019.5
20210805093806 61 68 0.0 1.0 0.00 0.00 0.00 95 1019.6
20210805093305 61 61 3.0 5.0 0.00 0.00 0.00 95 1019.6
20210805092803 61 89 1.0 2.0 0.00 0.00 0.00 94 1019.6
20210805092305 61 69 0.0 0.0 0.00 0.00 0.00 94 1019.5
20210805091801 61 81 1.0 1.0 0.00 0.00 0.00 94 1019.6
20210805091259 61 86 1.0 1.0 0.00 0.00 0.00 94 1019.6
20210805090748 61 47 0.0 1.0 0.00 0.00 0.00 94 1019.5
20210805090248 61 85 1.0 2.0 0.00 0.00 0.00 94 1019.7
20210805085746 62 83 0.0 1.0 0.00 0.00 0.00 93 1019.6
20210805085244 62 114 3.0 5.0 0.00 0.00 0.00 93 1019.5
20210805084743 62 72 1.0 2.0 0.00 0.00 0.00 93 1019.6
20210805084240 62 80 1.0 1.0 0.00 0.00 0.00 93 1019.5
20210805083740 62 98 0.0 1.0 0.00 0.00 0.00 93 1019.5
20210805083239 62 35 1.0 1.0 0.00 0.00 0.00 93 1019.6
20210805082736 62 13 0.0 0.0 0.00 0.00 0.00 93 1019.3
20210805082233 62 89 0.0 0.0 0.00 0.00 0.00 94 1019.4
20210805081734 62 66 1.0 2.0 0.00 0.00 0.00 94 1019.7
20210805081232 62 92 0.0 1.0 0.00 0.00 0.00 94 1019.6
20210805080730 62 95 1.0 2.0 0.00 0.00 0.00 94 1019.7
20210805080228 62 86 1.0 2.0 0.00 0.00 0.00 94 1019.6
20210805075725 62 88 1.0 1.0 0.00 0.00 0.00 94 1019.5
20210805075224 62 82 1.0 1.0 0.00 0.00 0.00 94 1019.7
20210805074716 62 99 1.0 2.0 0.00 0.00 0.00 94 1019.8
20210805074215 62 82 0.0 0.0 0.00 0.00 0.00 93 1019.8
20210805073714 62 87 1.0 2.0 0.00 0.00 0.00 93 1019.7
20210805073211 62 87 0.0 1.0 0.00 0.00 0.00 93 1019.9
20210805072710 62 94 1.0 2.0 0.00 0.00 0.00 93 1019.9
20210805072208 62 89 0.0 0.0 0.00 0.00 0.00 93 1019.9
20210805071708 62 89 0.0 0.0 0.00 0.00 0.00 93 1019.9
20210805071205 62 87 0.0 1.0 0.00 0.00 0.00 93 1020.1
20210805070705 62 89 0.0 0.0 0.00 0.00 0.00 93 1020.1
20210805070158 62 94 1.0 1.0 0.00 0.00 0.00 93 1020.4
20210805065658 62 87 0.0 0.0 0.00 0.00 0.00 93 1020.1
20210805065157 62 87 0.0 1.0 0.00 0.00 0.00 93 1020.2
20210805064656 62 72 0.0 0.0 0.00 0.00 0.00 93 1020.1
20210805064155 62 88 1.0 1.0 0.00 0.00 0.00 93 1020.1
20210805063653 62 87 1.0 2.0 0.00 0.00 0.00 93 1020.3
20210805063152 62 99 0.0 0.0 0.00 0.00 0.00 93 1020.2
20210805062650 62 80 0.0 0.0 0.00 0.00 0.00 94 1020.4
20210805062150 62 74 2.0 2.0 0.00 0.00 0.00 94 1020.3
20210805061650 62 84 0.0 1.0 0.00 0.00 0.00 93 1020.4
20210805061148 62 90 1.0 1.0 0.00 0.00 0.00 93 1020.4
20210805060647 62 79 0.0 1.0 0.00 0.00 0.00 93 1020.5
20210805060145 62 99 0.0 0.0 0.00 0.00 0.00 93 1020.4
20210805055644 62 87 0.0 0.0 0.00 0.00 0.00 93 1020.7
20210805055143 62 89 0.0 0.0 0.00 0.00 0.00 93 1020.5
20210805054642 62 88 1.0 1.0 0.00 0.00 0.00 93 1020.7
20210805054140 62 91 0.0 1.0 0.00 0.00 0.00 93 1020.7
20210805053638 62 91 0.0 0.0 0.00 0.00 0.00 93 1020.6
20210805053137 62 101 1.0 1.0 0.00 0.00 0.00 93 1020.8
20210805052636 62 114 0.0 0.0 0.00 0.00 0.00 93 1020.8
20210805052134 62 113 1.0 1.0 0.00 0.00 0.00 93 1020.8
20210805051634 62 99 0.0 0.0 0.00 0.00 0.00 93 1020.7
20210805051133 62 109 0.0 0.0 0.00 0.00 0.00 93 1021.0
20210805050633 62 109 0.0 0.0 0.00 0.00 0.00 92 1020.9
20210805050132 62 110 0.0 0.0 0.00 0.00 0.00 92 1020.8
20210805045631 62 110 0.0 0.0 0.00 0.00 0.00 92 1020.9
20210805045130 62 110 0.0 0.0 0.00 0.00 0.00 92 1021.0
20210805044625 62 97 0.0 0.0 0.00 0.00 0.00 91 1021.1
20210805044123 62 97 0.0 0.0 0.00 0.00 0.00 91 1020.9
20210805043623 62 97 0.0 0.0 0.00 0.00 0.00 91 1021.1
20210805043121 62 97 0.0 0.0 0.00 0.00 0.00 91 1020.7
20210805042619 62 97 0.0 1.0 0.00 0.00 0.00 91 1020.8
20210805042118 62 98 0.0 0.0 0.00 0.00 0.00 91 1020.9
20210805041618 62 98 0.0 0.0 0.00 0.00 0.00 91 1020.9
20210805041115 62 98 0.0 0.0 0.00 0.00 0.00 91 1021.0
20210805040610 62 98 0.0 0.0 0.00 0.00 0.00 91 1021.1
20210805040109 62 98 0.0 0.0 0.00 0.00 0.00 91 1021.1
20210805035608 62 98 0.0 0.0 0.00 0.00 0.00 91 1021.2
20210805035106 62 98 0.0 0.0 0.00 0.00 0.00 91 1021.2
20210805034603 62 98 0.0 0.0 0.00 0.00 0.00 91 1021.3
20210805034100 62 98 0.0 0.0 0.00 0.00 0.00 91 1021.3
20210805033559 62 98 0.0 0.0 0.00 0.00 0.00 91 1021.2
20210805033056 62 98 0.0 0.0 0.00 0.00 0.00 91 1021.2
20210805032555 62 98 0.0 0.0 0.00 0.00 0.00 90 1021.3
20210805032054 63 98 0.0 0.0 0.00 0.00 0.00 90 1021.4
20210805031551 63 98 0.0 0.0 0.00 0.00 0.00 90 1021.4
20210805031051 63 98 0.0 0.0 0.00 0.00 0.00 89 1021.6
20210805030548 63 98 0.0 0.0 0.00 0.00 0.00 89 1021.7
20210805030048 63 98 0.0 0.0 0.00 0.00 0.00 89 1021.6
20210805025546 63 98 0.0 0.0 0.00 0.00 0.00 89 1021.3
20210805025045 63 98 0.0 0.0 0.00 0.00 0.00 89 1021.7
20210805024542 63 98 0.0 0.0 0.00 0.00 0.00 89 1021.9
20210805024040 63 98 0.0 0.0 0.00 0.00 0.00 89 1021.9
20210805023538 63 98 0.0 0.0 0.00 0.00 0.00 88 1021.8
20210805023036 63 98 0.0 0.0 0.00 0.00 0.00 88 1021.8
20210805022535 63 98 0.0 0.0 0.00 0.00 0.00 88 1021.6
20210805022034 63 98 0.0 0.0 0.00 0.00 0.00 88 1021.7
20210805021532 63 98 0.0 0.0 0.00 0.00 0.00 88 1021.7
20210805021030 63 98 0.0 0.0 0.00 0.00 0.00 88 1021.9
20210805020528 63 98 0.0 0.0 0.00 0.00 0.00 88 1022.0
20210805020028 63 98 0.0 0.0 0.00 0.00 0.00 88 1021.9
20210805015527 63 98 0.0 0.0 0.00 0.00 0.00 88 1021.7
20210805015025 63 98 0.0 0.0 0.00 0.00 0.00 87 1021.8
20210805014524 63 98 0.0 0.0 0.00 0.00 0.00 88 1022.0
20210805014022 63 98 0.0 0.0 0.00 0.00 0.00 88 1021.9
20210805013521 63 98 0.0 0.0 0.00 0.00 0.00 88 1022.0
20210805013019 63 98 0.0 0.0 0.00 0.00 0.00 88 1022.1
20210805012518 63 98 0.0 0.0 0.00 0.00 0.00 88 1021.8
20210805012017 63 98 0.0 0.0 0.00 0.00 0.00 88 1021.8
20210805011516 63 98 0.0 0.0 0.00 0.00 0.00 88 1021.7
20210805011014 63 98 0.0 0.0 0.00 0.00 0.00 88 1021.9
20210805010511 63 98 0.0 0.0 0.00 0.00 0.00 88 1021.7
20210805010010 63 98 0.0 0.0 0.00 0.00 0.00 88 1021.7
20210805005510 63 98 0.0 0.0 0.00 0.00 0.00 87 1021.7
20210805005008 63 98 0.0 0.0 0.00 0.00 0.00 87 1021.4
20210805004507 63 98 0.0 0.0 0.00 0.00 0.00 87 1021.8
20210805004007 63 98 0.0 0.0 0.00 0.00 0.00 87 1021.7
20210805003505 63 98 0.0 0.0 0.00 0.00 0.00 88 1021.2
20210805003002 63 98 0.0 0.0 0.00 0.00 0.00 88 1021.4
20210805002501 63 98 0.0 0.0 0.00 0.00 0.00 88 1021.4
20210805001959 63 98 0.0 0.0 0.00 0.00 0.00 87 1021.4
20210805001457 63 98 0.0 0.0 0.00 0.00 0.00 88 1021.2
20210805000956 63 98 0.0 0.0 0.00 0.00 0.00 87 1021.3
20210805000454 64 98 0.0 0.0 0.00 0.00 0.00 87 1021.3
20210804235954 64 98 0.0 0.0 0.00 0.00 0.00 87 1021.2
20210804235454 64 98 0.0 0.0 0.00 0.00 0.00 86 1021.2
20210804234952 64 98 0.0 0.0 0.00 0.00 0.00 86 1021.4
20210804234450 64 98 0.0 0.0 0.00 0.00 0.00 85 1021.0
20210804233950 65 98 0.0 0.0 0.00 0.00 0.00 85 1020.9
20210804233449 65 98 0.0 0.0 0.00 0.00 0.00 86 1021.0
20210804232949 65 98 0.0 0.0 0.00 0.00 0.00 85 1021.1
20210804232449 65 98 0.0 0.0 0.00 0.00 0.00 84 1021.3
20210804231947 65 98 0.0 0.0 0.00 0.00 0.00 84 1021.2
20210804231446 65 98 0.0 0.0 0.00 0.00 0.00 82 1021.2
20210804230945 65 98 0.0 0.0 0.00 0.00 0.00 82 1021.2
20210804230446 65 98 0.0 0.0 0.00 0.00 0.00 82 1021.1
20210804225945 66 98 0.0 0.0 0.00 0.00 0.00 81 1021.2
20210804225445 66 98 0.0 0.0 0.00 0.00 0.00 81 1021.1
20210804224944 67 98 0.0 0.0 0.00 0.00 0.00 80 1021.2
20210804224441 67 98 0.0 0.0 0.00 0.00 0.00 79 1021.1
20210804223940 67 98 0.0 0.0 0.00 0.00 0.00 80 1021.2
20210804223439 67 97 0.0 0.0 0.00 0.00 0.00 79 1021.0
20210804222934 68 98 0.0 0.0 0.00 0.00 0.00 78 1021.1
20210804222433 68 98 0.0 0.0 0.00 0.00 0.00 79 1021.2
20210804221931 68 98 0.0 0.0 0.00 0.00 0.00 79 1021.2
20210804221432 68 98 0.0 0.0 0.00 0.00 0.00 78 1021.1
20210804220930 68 97 1.0 2.0 0.00 0.00 0.00 78 1021.3
20210804220430 68 125 0.0 0.0 0.00 0.00 0.00 81 1021.4
20210804215929 68 125 0.0 1.0 0.00 0.00 0.00 79 1021.6
20210804215427 68 125 0.0 0.0 0.00 0.00 0.00 79 1021.4
20210804214927 69 125 0.0 0.0 0.00 0.00 0.00 79 1021.4
20210804214426 69 125 0.0 1.0 0.00 0.00 0.00 79 1021.3
20210804213925 68 124 0.0 1.0 0.00 0.00 0.00 77 1021.6
20210804213425 69 125 0.0 0.0 0.00 0.00 0.00 77 1021.6
20210804212923 69 125 0.0 0.0 0.00 0.00 0.00 78 1021.3
20210804212421 69 124 1.0 1.0 0.00 0.00 0.00 75 1021.4
20210804211919 68 161 0.0 1.0 0.00 0.00 0.00 75 1021.6
20210804211415 69 166 2.0 2.0 0.00 0.00 0.00 74 1021.6
20210804210915 69 183 0.0 0.0 0.00 0.00 0.00 73 1021.8
20210804210414 69 115 0.0 0.0 0.00 0.00 0.00 74 1021.7
20210804205913 69 115 0.0 0.0 0.00 0.00 0.00 74 1021.1
20210804205410 69 115 0.0 0.0 0.00 0.00 0.00 75 1021.6
20210804204906 69 91 1.0 1.0 0.00 0.00 0.00 75 1021.6
20210804204404 69 103 0.0 0.0 0.00 0.00 0.00 77 1021.2
20210804203903 69 118 0.0 0.0 0.00 0.00 0.00 77 1021.2
20210804203401 69 118 0.0 0.0 0.00 0.00 0.00 77 1021.4
20210804202900 68 118 0.0 0.0 0.00 0.00 0.00 78 1021.6
20210804202358 68 118 0.0 0.0 0.00 0.00 0.00 77 1021.8
20210804201858 68 117 0.0 0.0 0.00 0.00 0.00 77 1021.9
20210804201358 68 117 0.0 0.0 0.00 0.00 0.00 78 1021.8
20210804200856 69 117 0.0 0.0 0.00 0.00 0.00 77 1022.1
20210804200355 69 117 0.0 0.0 0.00 0.00 0.00 73 1021.9
20210804195854 70 117 0.0 0.0 0.00 0.00 0.00 72 1022.1
20210804195353 69 117 0.0 0.0 0.00 0.00 0.00 73 1021.9
20210804194853 69 117 0.0 1.0 0.00 0.00 0.00 73 1021.9
20210804194351 69 116 0.0 0.0 0.00 0.00 0.00 70 1022.1
20210804193849 70 115 0.0 1.0 0.00 0.00 0.00 73 1021.9
20210804193340 70 115 0.0 1.0 0.00 0.00 0.00 74 1021.9
20210804192840 69 119 0.0 0.0 0.00 0.00 0.00 73 1022.0
20210804192339 70 148 0.0 0.0 0.00 0.00 0.00 79 1022.3
20210804191838 70 110 1.0 1.0 0.00 0.00 0.00 74 1022.1
20210804191339 70 111 0.0 0.0 0.00 0.00 0.00 74 1022.2
20210804190837 69 155 1.0 1.0 0.00 0.00 0.00 75 1022.2
20210804190336 70 160 0.0 0.0 0.00 0.00 0.00 76 1022.1
20210804185836 70 104 0.0 0.0 0.00 0.00 0.00 73 1022.3
20210804185334 70 102 0.0 0.0 0.00 0.00 0.00 71 1022.2
20210804184832 70 142 1.0 1.0 0.00 0.00 0.00 70 1022.3
20210804184330 70 153 0.0 1.0 0.00 0.00 0.00 73 1022.2
20210804183829 70 123 0.0 1.0 0.00 0.00 0.00 71 1022.2
20210804183326 71 122 0.0 0.0 0.00 0.00 0.00 73 1022.3
20210804182826 71 120 1.0 1.0 0.00 0.00 0.00 69 1022.2
20210804182323 71 118 1.0 1.0 0.00 0.00 0.00 70 1022.3
20210804181823 71 196 1.0 2.0 0.00 0.00 0.00 69 1022.2
20210804181322 72 153 1.0 2.0 0.00 0.00 0.00 70 1021.9
20210804180821 71 152 0.0 0.0 0.00 0.00 0.00 71 1022.1
20210804180319 72 135 0.0 1.0 0.00 0.00 0.00 68 1022.1
20210804175817 72 173 0.0 0.0 0.00 0.00 0.00 62 1022.0
20210804175317 72 240 1.0 1.0 0.00 0.00 0.00 62 1022.2
20210804174815 72 81 0.0 0.0 0.00 0.00 0.00 67 1022.0
20210804174311 72 99 1.0 1.0 0.00 0.00 0.00 62 1022.1
20210804173810 73 99 0.0 1.0 0.00 0.00 0.00 61 1022.0
20210804173309 73 99 0.0 0.0 0.00 0.00 0.00 64 1022.0
20210804172809 73 99 0.0 0.0 0.00 0.00 0.00 68 1022.0
20210804172307 72 99 1.0 1.0 0.00 0.00 0.00 65 1021.9
20210804171806 71 99 1.0 1.0 0.00 0.00 0.00 66 1021.9
20210804171305 71 99 0.0 1.0 0.00 0.00 0.00 67 1022.0
20210804170802 71 104 1.0 1.0 0.00 0.00 0.00 66 1022.1
20210804170300 71 104 1.0 1.0 0.00 0.00 0.00 67 1022.2
20210804165759 72 84 0.0 0.0 0.00 0.00 0.00 67 1022.1
20210804165250 71 83 0.0 1.0 0.00 0.00 0.00 64 1022.2
20210804164748 71 88 0.0 0.0 0.00 0.00 0.00 67 1022.0
20210804164247 70 96 2.0 3.0 0.00 0.00 0.00 65 1022.0
20210804163746 70 76 1.0 1.0 0.00 0.00 0.00 69 1021.8
20210804163245 69 85 1.0 2.0 0.00 0.00 0.00 67 1021.9
20210804162744 70 185 0.0 1.0 0.00 0.00 0.00 66 1021.9
20210804162242 70 86 1.0 1.0 0.00 0.00 0.00 67 1021.9
20210804161741 70 86 0.0 0.0 0.00 0.00 0.00 67 1022.2
20210804161240 70 101 1.0 2.0 0.00 0.00 0.00 68 1022.2
20210804160739 69 101 0.0 0.0 0.00 0.00 0.00 66 1022.3
20210804160236 69 87 0.0 0.0 0.00 0.00 0.00 67 1022.3
20210804155735 69 98 0.0 0.0 0.00 0.00 0.00 70 1022.3
20210804155235 69 106 0.0 0.0 0.00 0.00 0.00 68 1022.2
20210804154734 70 106 0.0 1.0 0.00 0.00 0.00 70 1022.4
20210804154233 69 107 1.0 1.0 0.00 0.00 0.00 69 1022.2
20210804153731 70 96 0.0 0.0 0.00 0.00 0.00 72 1022.3
20210804153230 69 96 0.0 1.0 0.00 0.00 0.00 73 1022.3
20210804152726 68 97 0.0 1.0 0.00 0.00 0.00 74 1022.4
20210804152226 68 34 2.0 3.0 0.00 0.00 0.00 74 1022.6
20210804151724 68 117 2.0 2.0 0.00 0.00 0.00 74 1022.4